createdAt,value
2018-06-30T00:00:48.808Z,3.63
2018-06-30T00:03:17.603Z,4.10
2018-06-30T00:05:46.471Z,4.70
2018-06-30T00:08:15.548Z,3.90
2018-06-30T00:10:44.527Z,3.43
2018-06-30T00:13:13.512Z,3.83
2018-06-30T00:15:42.406Z,3.87
2018-06-30T00:18:11.429Z,3.80
2018-06-30T00:20:40.226Z,3.90
2018-06-30T00:23:09.090Z,4.00
2018-06-30T00:25:38.124Z,3.97
2018-06-30T00:28:06.935Z,4.03
2018-06-30T00:30:35.997Z,4.20
2018-06-30T00:33:04.797Z,4.37
2018-06-30T00:35:33.599Z,4.63
2018-06-30T00:38:02.487Z,4.40
2018-06-30T00:40:31.882Z,4.20
2018-06-30T00:43:00.941Z,4.63
2018-06-30T00:45:29.964Z,4.17
2018-06-30T00:47:59.189Z,4.67
2018-06-30T00:50:28.230Z,4.97
2018-06-30T00:52:57.032Z,4.80
2018-06-30T00:55:25.888Z,4.80
2018-06-30T00:57:54.914Z,5.03
2018-06-30T01:00:23.946Z,5.00
2018-06-30T01:02:52.950Z,5.40
2018-06-30T01:05:22.006Z,5.30
2018-06-30T01:07:51.035Z,4.70
2018-06-30T01:10:20.353Z,5.43
2018-06-30T01:12:49.395Z,4.23
2018-06-30T01:15:18.319Z,5.07
2018-06-30T01:17:47.355Z,4.40
2018-06-30T01:20:16.396Z,4.97
2018-06-30T01:22:45.416Z,4.33
2018-06-30T01:25:14.259Z,4.63
2018-06-30T01:27:43.240Z,4.20
2018-06-30T01:30:12.603Z,4.97
2018-06-30T01:32:42.257Z,4.30
2018-06-30T01:35:11.259Z,4.53
2018-06-30T01:37:40.458Z,4.47
2018-06-30T01:40:09.406Z,4.47
2018-06-30T01:42:38.440Z,4.73
2018-06-30T01:45:08.475Z,4.10
2018-06-30T01:47:37.272Z,4.07
2018-06-30T01:50:06.323Z,4.70
2018-06-30T01:52:35.112Z,4.30
2018-06-30T01:55:04.111Z,4.30
2018-06-30T01:57:33.003Z,4.80
2018-06-30T02:00:01.782Z,4.43
2018-06-30T02:02:30.621Z,4.77
2018-06-30T02:04:59.499Z,4.50
2018-06-30T02:07:28.379Z,4.73
2018-06-30T02:09:57.369Z,4.20
2018-06-30T02:12:26.404Z,4.23
2018-06-30T02:14:55.427Z,4.40
2018-06-30T02:17:24.821Z,4.10
2018-06-30T02:19:53.687Z,4.30
2018-06-30T02:22:22.723Z,4.50
2018-06-30T02:24:51.759Z,4.10
2018-06-30T02:27:20.771Z,4.00
2018-06-30T02:29:49.799Z,4.37
2018-06-30T02:32:18.852Z,4.27
2018-06-30T02:34:47.864Z,4.23
2018-06-30T02:37:16.892Z,3.50
2018-06-30T02:39:45.707Z,4.03
2018-06-30T02:42:14.564Z,4.50
2018-06-30T02:44:43.609Z,4.43
2018-06-30T02:47:12.623Z,4.37
2018-06-30T02:49:41.632Z,4.07
2018-06-30T02:52:10.484Z,4.40
2018-06-30T02:54:39.621Z,4.00
2018-06-30T02:57:08.547Z,4.40
2018-06-30T02:59:37.344Z,3.80
2018-06-30T03:02:06.406Z,4.00
2018-06-30T03:04:35.210Z,4.03
2018-06-30T03:07:04.216Z,4.57
2018-06-30T03:09:33.103Z,4.30
2018-06-30T03:12:02.161Z,4.43
2018-06-30T03:14:30.911Z,4.70
2018-06-30T03:16:59.792Z,4.20
2018-06-30T03:19:28.639Z,4.20
2018-06-30T03:21:57.656Z,4.43
2018-06-30T03:24:26.448Z,4.07
2018-06-30T03:26:55.323Z,3.80
2018-06-30T03:29:24.351Z,4.10
2018-06-30T03:31:53.383Z,4.00
2018-06-30T03:34:22.351Z,3.87
2018-06-30T03:36:51.243Z,4.40
2018-06-30T03:39:20.278Z,4.57
2018-06-30T03:41:49.319Z,4.93
2018-06-30T03:44:18.318Z,4.43
2018-06-30T03:46:47.384Z,4.13
2018-06-30T03:49:16.405Z,5.00
2018-06-30T03:51:45.627Z,5.00
2018-06-30T03:54:14.706Z,5.13
2018-06-30T03:56:43.678Z,5.07
2018-06-30T03:59:12.483Z,5.60
2018-06-30T04:01:41.366Z,5.13
2018-06-30T04:04:10.378Z,5.13
2018-06-30T04:06:39.159Z,5.33
2018-06-30T04:09:09.586Z,4.97
2018-06-30T04:11:38.524Z,5.60
2018-06-30T04:14:07.463Z,5.47
2018-06-30T04:16:36.277Z,5.00
2018-06-30T04:19:11.727Z,5.10
2018-06-30T04:21:41.130Z,4.90
2018-06-30T04:24:10.060Z,5.30
2018-06-30T04:26:39.723Z,5.80
2018-06-30T04:29:08.736Z,5.83
2018-06-30T04:31:37.808Z,6.33
2018-06-30T04:34:07.146Z,5.97
2018-06-30T04:36:36.019Z,6.70
2018-06-30T04:39:06.956Z,6.10
2018-06-30T04:41:35.812Z,6.20
2018-06-30T04:44:04.890Z,5.57
2018-06-30T04:46:33.682Z,5.47
2018-06-30T04:49:02.332Z,6.40
2018-06-30T04:51:31.178Z,5.73
2018-06-30T04:54:00.226Z,6.50
2018-06-30T04:56:29.486Z,5.60
2018-06-30T04:58:58.520Z,5.80
2018-06-30T05:01:27.255Z,6.37
2018-06-30T05:03:56.130Z,6.10
2018-06-30T05:06:24.990Z,6.03
2018-06-30T05:08:54.082Z,6.30
2018-06-30T05:11:23.036Z,6.10
2018-06-30T05:13:52.590Z,6.37
2018-06-30T05:16:21.483Z,5.70
2018-06-30T05:18:50.508Z,6.13
2018-06-30T05:21:19.540Z,7.50
2018-06-30T05:23:48.639Z,6.93
2018-06-30T05:26:17.767Z,7.07
2018-06-30T05:28:46.571Z,6.87
2018-06-30T05:31:15.631Z,6.67
2018-06-30T05:33:45.211Z,6.53
2018-06-30T05:36:14.126Z,6.60
2018-06-30T05:38:43.174Z,7.57
2018-06-30T05:41:12.261Z,6.70
2018-06-30T05:43:41.245Z,6.30
2018-06-30T05:46:10.375Z,7.10
2018-06-30T05:48:39.476Z,6.63
2018-06-30T05:51:08.503Z,5.83
2018-06-30T05:53:37.528Z,5.70
2018-06-30T05:56:05.943Z,5.63
2018-06-30T05:58:34.791Z,5.53
2018-06-30T06:01:03.846Z,5.90
2018-06-30T06:03:32.907Z,7.03
2018-06-30T06:06:01.908Z,6.20
2018-06-30T06:08:31.262Z,6.20
2018-06-30T06:11:00.130Z,6.23
2018-06-30T06:13:29.164Z,6.37
2018-06-30T06:15:58.211Z,6.47
2018-06-30T06:18:27.239Z,6.97
2018-06-30T06:20:56.018Z,6.33
2018-06-30T06:23:24.894Z,6.77
2018-06-30T06:25:53.976Z,6.33
2018-06-30T06:28:22.926Z,6.53
2018-06-30T06:30:51.773Z,5.70
2018-06-30T06:33:20.766Z,5.87
2018-06-30T06:35:49.692Z,6.00
2018-06-30T06:38:18.677Z,5.60
2018-06-30T06:40:47.731Z,6.07
2018-06-30T06:43:16.515Z,5.47
2018-06-30T06:45:45.382Z,5.13
2018-06-30T06:48:14.404Z,5.80
2018-06-30T06:50:43.203Z,5.00
2018-06-30T06:53:12.065Z,5.60
2018-06-30T06:55:41.094Z,5.30
2018-06-30T06:58:09.503Z,5.67
2018-06-30T07:00:38.429Z,5.23
2018-06-30T07:03:07.212Z,5.40
2018-06-30T07:05:36.233Z,4.97
2018-06-30T07:08:05.643Z,5.13
2018-06-30T07:10:34.503Z,4.60
2018-06-30T07:13:03.515Z,4.87
2018-06-30T07:15:32.450Z,4.97
2018-06-30T07:18:01.201Z,5.00
2018-06-30T07:20:30.217Z,5.30
2018-06-30T07:22:58.994Z,4.57
2018-06-30T07:25:27.931Z,4.80
2018-06-30T07:27:56.907Z,5.10
2018-06-30T07:30:26.104Z,4.77
2018-06-30T07:32:54.971Z,5.30
2018-06-30T07:35:23.764Z,5.87
2018-06-30T07:37:52.655Z,4.90
2018-06-30T07:40:21.955Z,5.20
2018-06-30T07:42:50.376Z,5.30
2018-06-30T07:45:18.818Z,5.17
2018-06-30T07:47:47.234Z,4.93
2018-06-30T07:50:15.737Z,5.03
2018-06-30T07:52:44.220Z,4.90
2018-06-30T07:55:12.618Z,6.27
2018-06-30T07:57:41.030Z,6.07
2018-06-30T08:00:09.979Z,4.70
2018-06-30T08:02:38.994Z,5.87
2018-06-30T08:05:07.851Z,4.23
2018-06-30T08:07:36.444Z,4.40
2018-06-30T08:10:05.514Z,4.43
2018-06-30T08:12:34.680Z,4.50
2018-06-30T08:15:03.568Z,4.03
2018-06-30T08:17:32.608Z,4.30
2018-06-30T08:20:01.626Z,4.33
2018-06-30T08:22:30.635Z,4.50
2018-06-30T08:24:59.651Z,4.93
2018-06-30T08:27:28.390Z,4.20
2018-06-30T08:29:57.359Z,4.30
2018-06-30T08:32:26.570Z,4.80
2018-06-30T08:34:55.603Z,4.60
2018-06-30T08:37:24.639Z,4.23
2018-06-30T08:39:53.668Z,4.87
2018-06-30T08:42:22.687Z,4.27
2018-06-30T08:44:51.539Z,4.60
2018-06-30T08:47:20.417Z,4.27
2018-06-30T08:49:49.196Z,4.57
2018-06-30T08:52:18.475Z,4.23
2018-06-30T08:54:47.461Z,4.20
2018-06-30T08:57:16.479Z,4.33
2018-06-30T08:59:45.515Z,5.00
2018-06-30T09:02:14.503Z,4.33
2018-06-30T09:04:43.367Z,4.63
2018-06-30T09:07:12.427Z,4.20
2018-06-30T09:09:41.217Z,4.10
2018-06-30T09:12:10.125Z,4.50
2018-06-30T09:14:39.100Z,5.20
2018-06-30T09:17:08.197Z,4.23
2018-06-30T09:19:37.349Z,4.03
2018-06-30T09:22:06.209Z,4.70
2018-06-30T09:24:35.239Z,5.00
2018-06-30T09:27:04.238Z,4.93
2018-06-30T09:29:33.206Z,4.30
2018-06-30T09:32:02.107Z,4.33
2018-06-30T09:34:31.139Z,4.43
2018-06-30T09:36:59.537Z,4.30
2018-06-30T09:39:27.959Z,4.70
2018-06-30T09:41:56.843Z,4.53
2018-06-30T09:44:26.176Z,4.30
2018-06-30T09:46:55.107Z,4.20
2018-06-30T09:49:24.426Z,4.50
2018-06-30T09:51:53.360Z,4.50
2018-06-30T09:54:22.415Z,4.13
2018-06-30T09:56:51.459Z,4.03
2018-06-30T09:59:20.462Z,4.10
2018-06-30T10:01:49.475Z,3.47
2018-06-30T10:04:18.517Z,4.43
2018-06-30T10:06:47.327Z,3.83
2018-06-30T10:09:16.420Z,4.20
2018-06-30T10:11:45.194Z,3.83
2018-06-30T10:14:14.239Z,4.07
2018-06-30T10:16:43.267Z,3.70
2018-06-30T10:19:12.563Z,3.93
2018-06-30T10:21:41.348Z,3.83
2018-06-30T10:24:10.204Z,4.37
2018-06-30T10:26:39.379Z,3.63
2018-06-30T10:29:08.428Z,3.83
2018-06-30T10:31:37.643Z,4.00
2018-06-30T10:34:06.700Z,3.90
2018-06-30T10:36:35.299Z,3.70
2018-06-30T10:39:05.153Z,3.57
2018-06-30T10:41:34.172Z,3.97
2018-06-30T10:44:03.200Z,3.90
2018-06-30T10:46:32.228Z,4.30
2018-06-30T10:49:01.263Z,3.47
2018-06-30T10:51:30.275Z,3.30
2018-06-30T10:53:59.173Z,3.93
2018-06-30T10:56:28.171Z,4.00
2018-06-30T10:58:57.186Z,3.93
2018-06-30T11:01:26.484Z,3.90
2018-06-30T11:03:55.707Z,4.03
2018-06-30T11:06:24.933Z,4.40
2018-06-30T11:08:53.768Z,4.13
2018-06-30T11:11:22.951Z,3.67
2018-06-30T11:13:52.182Z,4.10
2018-06-30T11:16:21.449Z,3.53
2018-06-30T11:18:50.212Z,3.70
2018-06-30T11:21:19.488Z,3.90
2018-06-30T11:23:48.465Z,3.90
2018-06-30T11:26:17.809Z,3.30
2018-06-30T11:28:46.998Z,3.90
2018-06-30T11:31:16.169Z,3.57
2018-06-30T11:33:45.350Z,4.10
2018-06-30T11:36:14.416Z,3.63
2018-06-30T11:38:43.647Z,3.80
2018-06-30T11:41:12.903Z,5.50
2018-06-30T11:43:41.918Z,3.70
2018-06-30T11:46:11.352Z,3.20
2018-06-30T11:48:40.790Z,3.77
2018-06-30T11:51:09.752Z,3.67
2018-06-30T11:53:38.879Z,3.47
2018-06-30T11:56:08.035Z,4.00
2018-06-30T11:58:37.312Z,3.70
2018-06-30T12:01:06.346Z,3.50
2018-06-30T12:03:35.545Z,3.37
2018-06-30T12:06:04.745Z,3.50
2018-06-30T12:08:33.976Z,3.00
2018-06-30T12:11:03.259Z,3.37
2018-06-30T12:13:32.198Z,3.60
2018-06-30T12:16:01.232Z,3.60
2018-06-30T12:18:30.280Z,3.13
2018-06-30T12:20:59.526Z,3.30
2018-06-30T12:23:28.795Z,3.17
2018-06-30T12:25:57.966Z,4.00
2018-06-30T12:28:27.234Z,4.30
2018-06-30T12:30:56.250Z,3.57
2018-06-30T12:33:25.540Z,2.80
2018-06-30T12:35:54.434Z,3.13
2018-06-30T12:38:23.687Z,3.33
2018-06-30T12:40:52.954Z,3.70
2018-06-30T12:43:22.137Z,3.33
2018-06-30T12:45:50.929Z,4.13
2018-06-30T12:48:19.984Z,3.90
2018-06-30T12:50:48.779Z,4.00
2018-06-30T12:53:17.653Z,4.43
2018-06-30T12:55:46.680Z,3.57
2018-06-30T12:58:15.682Z,3.60
2018-06-30T13:00:44.743Z,3.80
2018-06-30T13:03:13.821Z,3.33
2018-06-30T13:05:42.812Z,4.20
2018-06-30T13:08:12.281Z,4.33
2018-06-30T13:10:41.647Z,3.47
2018-06-30T13:13:10.667Z,3.70
2018-06-30T13:15:39.690Z,4.07
2018-06-30T13:18:08.731Z,5.23
2018-06-30T13:20:38.554Z,3.47
2018-06-30T13:23:07.600Z,3.40
2018-06-30T13:25:36.604Z,4.40
2018-06-30T13:28:05.632Z,3.70
2018-06-30T13:30:34.435Z,3.40
2018-06-30T13:33:03.327Z,3.70
2018-06-30T13:35:32.671Z,3.53
2018-06-30T13:38:01.554Z,3.50
2018-06-30T13:40:30.210Z,3.17
2018-06-30T13:42:59.234Z,3.20
2018-06-30T13:45:28.451Z,3.03
2018-06-30T13:47:57.472Z,2.93
2018-06-30T13:50:26.283Z,3.93
2018-06-30T13:52:55.328Z,3.00
2018-06-30T13:55:24.384Z,3.67
2018-06-30T13:57:53.419Z,3.00
2018-06-30T14:00:22.431Z,2.90
2018-06-30T14:02:51.470Z,3.40
2018-06-30T14:05:19.867Z,3.40
2018-06-30T14:07:48.787Z,3.10
2018-06-30T14:10:17.204Z,3.20
2018-06-30T14:12:45.776Z,2.87
2018-06-30T14:15:14.176Z,3.70
2018-06-30T14:17:42.603Z,3.63
2018-06-30T14:20:11.651Z,3.50
2018-06-30T14:22:40.990Z,3.30
2018-06-30T14:25:09.387Z,2.90
2018-06-30T14:27:37.824Z,3.47
2018-06-30T14:30:07.667Z,3.60
2018-06-30T14:32:36.119Z,3.50
2018-06-30T14:35:04.629Z,3.33
2018-06-30T14:37:33.033Z,3.17
2018-06-30T14:40:01.496Z,3.20
2018-06-30T14:42:29.967Z,3.90
2018-06-30T14:44:58.439Z,3.27
2018-06-30T14:47:26.896Z,3.03
2018-06-30T14:49:55.307Z,3.10
2018-06-30T14:52:23.788Z,2.70
2018-06-30T14:54:52.329Z,2.60
2018-06-30T14:57:20.775Z,2.70
2018-06-30T14:59:49.191Z,2.70
2018-06-30T15:02:17.618Z,2.90
2018-06-30T15:04:46.057Z,3.43
2018-06-30T15:07:14.460Z,2.73
2018-06-30T15:09:42.842Z,3.17
2018-06-30T15:12:11.592Z,3.40
2018-06-30T15:14:40.006Z,2.43
2018-06-30T15:17:08.543Z,2.60
2018-06-30T15:19:37.036Z,2.70
2018-06-30T15:22:05.608Z,2.23
2018-06-30T15:24:34.074Z,2.47
2018-06-30T15:27:02.505Z,2.70
2018-06-30T15:29:30.933Z,3.00
2018-06-30T15:31:59.403Z,2.60
2018-06-30T15:34:27.827Z,2.30
2018-06-30T15:36:56.243Z,2.47
2018-06-30T15:39:24.647Z,2.60
2018-06-30T15:41:53.083Z,2.50
2018-06-30T15:44:21.536Z,2.70
2018-06-30T15:46:49.928Z,2.30
2018-06-30T15:49:18.351Z,2.20
2018-06-30T15:51:46.767Z,2.37
2018-06-30T15:54:15.244Z,2.87
2018-06-30T15:56:43.662Z,2.40
2018-06-30T15:59:12.232Z,2.57
2018-06-30T16:01:40.831Z,2.70
2018-06-30T16:04:09.284Z,2.80
2018-06-30T16:06:37.726Z,2.90
2018-06-30T16:09:07.584Z,2.27
2018-06-30T16:11:35.970Z,2.57
2018-06-30T16:14:04.772Z,2.47
2018-06-30T16:16:33.472Z,2.43
2018-06-30T16:19:01.917Z,2.30
2018-06-30T16:21:30.359Z,2.60
2018-06-30T16:23:58.875Z,2.23
2018-06-30T16:26:27.313Z,2.57
2018-06-30T16:28:55.793Z,2.60
2018-06-30T16:31:24.224Z,2.33
2018-06-30T16:33:52.743Z,2.60
2018-06-30T16:36:22.004Z,2.20
2018-06-30T16:38:50.716Z,2.50
2018-06-30T16:41:19.174Z,1.93
2018-06-30T16:43:47.622Z,2.30
2018-06-30T16:46:16.032Z,2.00
2018-06-30T16:48:44.490Z,2.80
2018-06-30T16:51:13.094Z,3.93
2018-06-30T16:53:41.524Z,4.37
2018-06-30T16:56:09.955Z,3.77
2018-06-30T16:58:38.433Z,3.90
2018-06-30T17:01:06.906Z,3.77
2018-06-30T17:03:35.332Z,4.40
2018-06-30T17:06:03.842Z,6.23
2018-06-30T17:08:32.277Z,4.17
2018-06-30T17:11:00.707Z,4.50
2018-06-30T17:13:29.103Z,7.57
2018-06-30T17:15:57.513Z,4.93
2018-06-30T17:18:25.939Z,4.03
2018-06-30T17:20:54.930Z,3.90
2018-06-30T17:23:23.370Z,3.80
2018-06-30T17:25:51.974Z,2.80
2018-06-30T17:28:20.351Z,2.67
2018-06-30T17:30:48.754Z,2.40
2018-06-30T17:33:17.215Z,2.50
2018-06-30T17:35:45.676Z,2.90
2018-06-30T17:38:14.102Z,5.40
2018-06-30T17:40:42.596Z,2.70
2018-06-30T17:43:11.047Z,2.60
2018-06-30T17:45:39.455Z,3.57
2018-06-30T17:48:08.040Z,2.07
2018-06-30T17:50:36.493Z,2.63
2018-06-30T17:53:05.009Z,4.80
2018-06-30T17:55:33.458Z,11.63
2018-06-30T17:58:01.903Z,3.07
2018-06-30T18:00:30.343Z,3.03
2018-06-30T18:02:58.762Z,2.30
2018-06-30T18:05:27.193Z,7.23
2018-06-30T18:07:55.633Z,8.93
2018-06-30T18:10:24.155Z,3.70
2018-06-30T18:12:52.945Z,2.90
2018-06-30T18:15:21.406Z,2.87
2018-06-30T18:17:49.936Z,4.97
2018-06-30T18:20:18.371Z,3.10
2018-06-30T18:22:46.826Z,4.37
2018-06-30T18:25:15.348Z,2.80
2018-06-30T18:27:43.767Z,2.90
2018-06-30T18:30:12.181Z,2.73
2018-06-30T18:32:41.059Z,2.40
2018-06-30T18:35:09.493Z,2.77
2018-06-30T18:37:38.060Z,2.60
2018-06-30T18:40:06.814Z,2.63
2018-06-30T18:42:35.427Z,2.30
2018-06-30T18:45:04.058Z,2.20
2018-06-30T18:47:32.508Z,2.60
2018-06-30T18:50:00.925Z,2.23
2018-06-30T18:52:29.425Z,2.33
2018-06-30T18:54:57.867Z,2.33
2018-06-30T18:57:26.645Z,2.40
2018-06-30T18:59:55.065Z,2.57
2018-06-30T19:02:23.501Z,2.87
2018-06-30T19:04:51.927Z,4.57
2018-06-30T19:07:20.436Z,4.60
2018-06-30T19:09:48.946Z,6.00
2018-06-30T19:12:17.496Z,4.03
2018-06-30T19:14:46.188Z,3.03
2018-06-30T19:17:14.803Z,7.20
2018-06-30T19:19:43.348Z,4.50
2018-06-30T19:22:11.834Z,5.37
2018-06-30T19:24:40.355Z,3.97
2018-06-30T19:27:08.827Z,4.60
2018-06-30T19:29:37.411Z,13.43
2018-06-30T19:32:05.959Z,4.23
2018-06-30T19:34:34.415Z,4.27
2018-06-30T19:37:02.914Z,8.13
2018-06-30T19:39:31.371Z,6.93
2018-06-30T19:41:59.850Z,5.37
2018-06-30T19:44:28.262Z,4.27
2018-06-30T19:46:56.708Z,4.13
2018-06-30T19:49:25.336Z,4.47
2018-06-30T19:51:53.791Z,5.97
2018-06-30T19:54:22.208Z,4.90
2018-06-30T19:56:50.647Z,6.30
2018-06-30T19:59:19.058Z,6.77
2018-06-30T20:01:48.050Z,6.83
2018-06-30T20:04:16.582Z,7.93
2018-06-30T20:06:45.059Z,14.03
2018-06-30T20:09:13.536Z,12.43
2018-06-30T20:11:42.299Z,9.87
2018-06-30T20:14:10.830Z,11.17
2018-06-30T20:16:39.326Z,5.40
2018-06-30T20:19:07.811Z,6.00
2018-06-30T20:21:36.316Z,5.87
2018-06-30T20:24:04.807Z,7.80
2018-06-30T20:26:33.242Z,16.93
2018-06-30T20:29:01.708Z,5.70
2018-06-30T20:31:30.156Z,6.37
2018-06-30T20:33:58.818Z,4.40
2018-06-30T20:36:27.258Z,5.20
2018-06-30T20:38:55.684Z,4.00
2018-06-30T20:41:24.183Z,5.67
2018-06-30T20:43:53.019Z,4.33
2018-06-30T20:46:21.444Z,4.43
2018-06-30T20:48:49.858Z,4.13
2018-06-30T20:51:18.312Z,3.60
2018-06-30T20:53:46.720Z,3.97
2018-06-30T20:56:15.158Z,4.97
2018-06-30T20:58:43.567Z,4.47
2018-06-30T21:01:12.211Z,5.03
2018-06-30T21:03:40.699Z,5.93
2018-06-30T21:06:09.491Z,5.07
2018-06-30T21:08:37.892Z,5.37
2018-06-30T21:11:06.371Z,4.13
2018-06-30T21:13:34.842Z,4.93
2018-06-30T21:16:03.333Z,4.27
2018-06-30T21:18:31.805Z,4.50
2018-06-30T21:21:00.257Z,4.10
2018-06-30T21:23:28.839Z,4.20
2018-06-30T21:25:57.301Z,4.20
2018-06-30T21:28:25.794Z,4.80
2018-06-30T21:30:54.255Z,4.20
2018-06-30T21:33:22.937Z,4.10
2018-06-30T21:35:51.394Z,4.73
2018-06-30T21:38:19.880Z,5.03
2018-06-30T21:40:48.353Z,4.50
2018-06-30T21:43:16.783Z,4.17
2018-06-30T21:45:45.199Z,5.87
2018-06-30T21:48:13.654Z,7.47
2018-06-30T21:50:42.055Z,8.07
2018-06-30T21:53:10.516Z,7.93
2018-06-30T21:55:39.158Z,8.00
2018-06-30T21:58:07.707Z,8.27
2018-06-30T22:00:47.708Z,8.23
2018-06-30T22:03:16.847Z,8.00
2018-06-30T22:05:45.242Z,7.77
2018-06-30T22:08:13.710Z,8.50
2018-06-30T22:10:42.524Z,7.63
2018-06-30T22:13:11.233Z,7.57
2018-06-30T22:15:39.654Z,6.80
2018-06-30T22:18:08.154Z,6.37
2018-06-30T22:20:36.944Z,5.80
2018-06-30T22:23:05.437Z,5.80
2018-06-30T22:25:34.352Z,6.10
2018-06-30T22:28:03.447Z,5.13
2018-06-30T22:30:32.080Z,5.23
2018-06-30T22:33:00.534Z,4.80
2018-06-30T22:35:29.052Z,4.97
2018-06-30T22:37:58.091Z,4.70
2018-06-30T22:40:26.519Z,6.10
2018-06-30T22:42:55.034Z,4.30
2018-06-30T22:45:23.463Z,4.30
2018-06-30T22:47:51.845Z,4.40
2018-06-30T22:50:20.342Z,4.80
2018-06-30T22:52:49.031Z,4.93
2018-06-30T22:55:17.462Z,4.70
2018-06-30T22:57:45.888Z,4.53
2018-06-30T23:00:16.316Z,5.70
2018-06-30T23:02:44.487Z,5.50
2018-06-30T23:05:13.019Z,5.73
2018-06-30T23:07:41.488Z,5.37
2018-06-30T23:10:11.227Z,5.10
2018-06-30T23:12:40.244Z,5.13
2018-06-30T23:15:09.061Z,5.17
2018-06-30T23:17:37.547Z,5.27
2018-06-30T23:20:06.893Z,5.00
2018-06-30T23:23:07.174Z,5.20
2018-06-30T23:25:36.219Z,4.97
2018-06-30T23:28:04.843Z,5.67
2018-06-30T23:30:33.772Z,5.30
2018-06-30T23:33:02.219Z,5.23
2018-06-30T23:35:31.625Z,5.33
2018-06-30T23:38:00.847Z,5.30
2018-06-30T23:40:29.279Z,5.53
2018-06-30T23:42:57.779Z,6.30
2018-06-30T23:45:26.294Z,5.70
2018-06-30T23:47:55.135Z,5.53
2018-06-30T23:50:23.543Z,7.23
2018-06-30T23:52:52.399Z,6.50
2018-06-30T23:55:20.864Z,7.80
2018-06-30T23:57:49.295Z,6.43
